createdAt,value
2023-01-19T00:01:29.684Z,108.65
2023-01-19T00:03:57.762Z,98.15
2023-01-19T00:06:26.296Z,90.65
2023-01-19T00:08:54.678Z,81.82
2023-01-19T00:11:23.496Z,63.38
2023-01-19T00:13:52.115Z,56.70
2023-01-19T00:16:21.540Z,68.63
2023-01-19T00:18:51.472Z,73.85
2023-01-19T00:21:20.608Z,72.93
2023-01-19T00:23:49.373Z,60.03
2023-01-19T00:26:18.675Z,75.35
2023-01-19T00:28:47.263Z,72.03
2023-01-19T00:31:15.590Z,73.28
2023-01-19T00:33:43.658Z,90.60
2023-01-19T00:36:11.875Z,92.78
2023-01-19T00:38:40.114Z,89.00
2023-01-19T00:41:08.400Z,71.88
2023-01-19T00:43:36.513Z,75.05
2023-01-19T00:46:04.805Z,87.30
2023-01-19T00:48:33.041Z,86.47
2023-01-19T00:51:01.305Z,79.55
2023-01-19T00:53:29.390Z,74.10
2023-01-19T00:55:57.611Z,80.75
2023-01-19T00:58:25.791Z,91.60
2023-01-19T01:00:54.802Z,63.10
2023-01-19T01:03:22.989Z,141.30
2023-01-19T01:05:51.362Z,97.50
2023-01-19T01:08:19.562Z,74.22
2023-01-19T01:10:47.742Z,85.00
2023-01-19T01:13:21.301Z,121.93
2023-01-19T01:15:52.987Z,149.52
2023-01-19T01:18:22.278Z,133.57
2023-01-19T01:20:50.690Z,163.20
2023-01-19T01:23:19.388Z,195.07
2023-01-19T01:25:47.606Z,198.77
2023-01-19T01:28:15.832Z,190.75
2023-01-19T01:30:44.202Z,195.35
2023-01-19T01:33:12.454Z,182.48
2023-01-19T01:35:40.799Z,186.45
2023-01-19T01:38:09.993Z,171.50
2023-01-19T01:40:41.259Z,181.63
2023-01-19T01:43:18.513Z,165.68
2023-01-19T01:45:46.947Z,192.68
2023-01-19T01:48:31.065Z,174.93
2023-01-19T01:51:03.618Z,170.82
2023-01-19T01:53:34.604Z,163.05
2023-01-19T01:56:08.074Z,162.90
2023-01-19T01:58:38.430Z,154.48
2023-01-19T02:01:08.489Z,131.10
2023-01-19T02:03:36.879Z,115.68
2023-01-19T02:06:07.604Z,114.00
2023-01-19T02:09:02.226Z,88.45
2023-01-19T02:11:31.382Z,110.88
2023-01-19T02:13:59.888Z,94.55
2023-01-19T02:16:28.176Z,97.13
2023-01-19T02:18:57.601Z,101.88
2023-01-19T02:21:53.710Z,89.82
2023-01-19T02:24:22.652Z,98.13
2023-01-19T02:26:51.743Z,85.05
2023-01-19T02:29:22.931Z,87.82
2023-01-19T02:31:51.636Z,98.40
2023-01-19T02:34:22.048Z,109.53
2023-01-19T02:36:55.050Z,97.95
2023-01-19T02:39:35.129Z,94.95
2023-01-19T02:42:17.797Z,97.57
2023-01-19T02:44:49.652Z,85.35
2023-01-19T02:47:17.957Z,108.00
2023-01-19T02:49:54.555Z,82.53
2023-01-19T02:52:22.961Z,98.68
2023-01-19T02:55:17.417Z,90.72
2023-01-19T02:58:12.277Z,99.60
2023-01-19T03:01:09.291Z,92.57
2023-01-19T03:03:57.630Z,84.18
2023-01-19T03:07:10.152Z,104.55
2023-01-19T03:09:47.305Z,76.68
2023-01-19T03:12:27.881Z,91.43
2023-01-19T03:15:01.628Z,91.38
2023-01-19T03:17:32.765Z,84.30
2023-01-19T03:20:03.007Z,87.68
2023-01-19T03:22:31.800Z,104.80
2023-01-19T03:25:02.274Z,94.20
2023-01-19T03:27:37.732Z,88.05
2023-01-19T03:30:12.552Z,90.88
2023-01-19T03:32:50.393Z,84.57
2023-01-19T03:35:21.920Z,78.55
2023-01-19T03:37:54.691Z,90.32
2023-01-19T03:40:24.130Z,80.30
2023-01-19T03:42:52.843Z,88.80
2023-01-19T03:45:21.875Z,89.20
2023-01-19T03:47:50.535Z,80.65
2023-01-19T03:50:27.313Z,91.32
2023-01-19T03:53:13.517Z,84.15
2023-01-19T03:55:48.889Z,94.13
2023-01-19T03:58:17.203Z,84.57
2023-01-19T04:00:45.343Z,86.43
2023-01-19T04:03:18.419Z,96.93
2023-01-19T04:05:47.083Z,86.20
2023-01-19T04:08:15.316Z,77.57
2023-01-19T04:10:43.484Z,87.78
2023-01-19T04:13:11.824Z,92.03
2023-01-19T04:15:40.266Z,92.93
2023-01-19T04:18:09.276Z,125.43
2023-01-19T04:20:38.456Z,116.55
2023-01-19T04:23:06.802Z,122.70
2023-01-19T04:25:35.615Z,117.38
2023-01-19T04:28:05.045Z,130.25
2023-01-19T04:30:33.135Z,121.47
2023-01-19T04:33:01.670Z,110.82
2023-01-19T04:35:30.062Z,110.43
2023-01-19T04:37:58.283Z,96.30
2023-01-19T04:40:26.435Z,99.95
2023-01-19T04:42:54.663Z,83.10
2023-01-19T04:45:22.736Z,83.22
2023-01-19T04:47:53.046Z,80.53
2023-01-19T04:50:21.369Z,62.75
2023-01-19T04:52:50.883Z,73.45
2023-01-19T04:55:19.330Z,60.83
2023-01-19T04:57:47.469Z,58.28
2023-01-19T05:00:18.760Z,62.92
2023-01-19T05:02:47.267Z,60.38
2023-01-19T05:05:15.662Z,58.28
2023-01-19T05:07:43.991Z,65.07
2023-01-19T05:10:12.460Z,63.30
2023-01-19T05:12:40.989Z,65.63
2023-01-19T05:15:09.965Z,63.40
2023-01-19T05:17:38.805Z,68.57
2023-01-19T05:20:07.690Z,75.53
2023-01-19T05:22:35.879Z,71.63
2023-01-19T05:25:04.196Z,67.20
2023-01-19T05:27:32.433Z,75.40
2023-01-19T05:30:00.971Z,70.38
2023-01-19T05:32:29.135Z,70.72
2023-01-19T05:34:57.320Z,58.55
2023-01-19T05:37:25.808Z,63.50
2023-01-19T05:39:54.652Z,65.75
2023-01-19T05:42:22.891Z,63.20
2023-01-19T05:44:51.141Z,69.68
2023-01-19T05:47:19.488Z,74.85
2023-01-19T05:49:47.595Z,92.10
2023-01-19T05:52:15.806Z,81.03
2023-01-19T05:54:44.069Z,86.72
2023-01-19T05:57:12.294Z,79.93
2023-01-19T05:59:40.628Z,81.28
2023-01-19T06:02:10.155Z,84.32
2023-01-19T06:04:38.253Z,92.78
2023-01-19T06:07:06.760Z,103.13
2023-01-19T06:09:35.090Z,106.88
2023-01-19T06:12:03.485Z,96.95
2023-01-19T06:14:31.799Z,88.22
2023-01-19T06:17:00.002Z,111.68
2023-01-19T06:19:28.269Z,103.82
2023-01-19T06:21:56.579Z,83.82
2023-01-19T06:24:24.731Z,90.07
2023-01-19T06:26:52.861Z,86.28
2023-01-19T06:29:21.109Z,81.50
2023-01-19T06:31:49.361Z,89.05
2023-01-19T06:34:17.505Z,90.57
2023-01-19T06:36:46.046Z,78.15
2023-01-19T06:39:14.364Z,75.07
2023-01-19T06:41:42.623Z,88.47
2023-01-19T06:44:10.933Z,95.32
2023-01-19T06:46:41.310Z,81.28
2023-01-19T06:49:09.741Z,81.47
2023-01-19T06:51:38.087Z,80.65
2023-01-19T06:54:06.312Z,81.90
2023-01-19T06:56:34.797Z,90.95
2023-01-19T06:59:03.392Z,88.13
2023-01-19T07:01:31.617Z,97.32
2023-01-19T07:03:59.972Z,98.90
2023-01-19T07:06:30.801Z,83.40
2023-01-19T07:09:00.750Z,79.03
2023-01-19T07:11:33.169Z,77.55
2023-01-19T07:14:01.728Z,71.30
2023-01-19T07:16:29.979Z,98.32
2023-01-19T07:18:58.273Z,93.03
2023-01-19T07:21:28.927Z,73.22
2023-01-19T07:23:57.686Z,87.32
2023-01-19T07:26:25.791Z,80.25
2023-01-19T07:28:54.107Z,82.32
2023-01-19T07:31:24.396Z,103.20
2023-01-19T07:33:52.812Z,103.25
2023-01-19T07:36:21.158Z,102.10
2023-01-19T07:38:49.517Z,121.88
2023-01-19T07:41:17.762Z,97.35
2023-01-19T07:43:45.924Z,94.68
2023-01-19T07:46:14.482Z,100.28
2023-01-19T07:48:42.805Z,98.25
2023-01-19T07:51:12.883Z,98.22
2023-01-19T07:53:41.347Z,101.95
2023-01-19T07:56:09.928Z,93.18
2023-01-19T07:58:39.798Z,75.13
2023-01-19T08:01:12.901Z,97.90
2023-01-19T08:03:41.747Z,86.13
2023-01-19T08:06:22.288Z,85.10
2023-01-19T08:08:50.523Z,104.10
2023-01-19T08:11:18.809Z,98.55
2023-01-19T08:13:47.228Z,86.75
2023-01-19T08:16:15.636Z,104.43
2023-01-19T08:18:44.170Z,106.57
2023-01-19T08:21:12.343Z,124.13
2023-01-19T08:23:40.717Z,79.65
2023-01-19T08:26:41.183Z,86.30
2023-01-19T08:29:09.604Z,82.32
2023-01-19T08:31:37.913Z,80.28
2023-01-19T08:34:06.242Z,68.22
2023-01-19T08:36:35.133Z,73.05
2023-01-19T08:39:03.228Z,82.75
2023-01-19T08:41:31.556Z,78.57
2023-01-19T08:43:59.908Z,95.53
2023-01-19T08:46:28.317Z,84.78
2023-01-19T08:48:56.583Z,78.20
2023-01-19T08:51:24.881Z,72.93
2023-01-19T08:53:52.967Z,73.38
2023-01-19T08:56:21.372Z,87.07
2023-01-19T08:59:03.434Z,79.15
2023-01-19T09:01:36.770Z,80.68
2023-01-19T09:04:05.290Z,91.68
2023-01-19T09:06:33.527Z,80.15
2023-01-19T09:09:02.209Z,69.68
2023-01-19T09:11:30.652Z,85.10
2023-01-19T09:14:00.812Z,105.35
2023-01-19T09:16:29.206Z,91.45
2023-01-19T09:18:57.472Z,88.60
2023-01-19T09:21:25.926Z,101.88
2023-01-19T09:23:54.082Z,104.32
2023-01-19T09:26:22.306Z,101.32
2023-01-19T09:28:50.645Z,74.43
2023-01-19T09:31:19.050Z,71.47
2023-01-19T09:33:47.294Z,97.15
2023-01-19T09:36:15.540Z,82.80
2023-01-19T09:38:43.853Z,86.57
2023-01-19T09:41:21.605Z,100.80
2023-01-19T09:43:58.410Z,77.85
2023-01-19T09:46:40.878Z,72.88
2023-01-19T09:49:26.001Z,79.43
2023-01-19T09:51:57.069Z,80.13
2023-01-19T09:54:40.449Z,75.80
2023-01-19T09:57:14.849Z,72.25
2023-01-19T09:59:43.765Z,75.85
2023-01-19T10:02:37.699Z,68.43
2023-01-19T10:05:25.788Z,75.00
2023-01-19T10:08:21.891Z,48.03
2023-01-19T10:10:59.459Z,71.93
2023-01-19T10:13:49.427Z,67.55
2023-01-19T10:16:57.809Z,72.78
2023-01-19T10:19:36.647Z,83.38
2023-01-19T10:22:22.949Z,76.50
2023-01-19T10:24:56.103Z,70.60
2023-01-19T10:27:31.131Z,69.90
2023-01-19T10:30:01.604Z,121.90
2023-01-19T10:32:36.155Z,89.97
2023-01-19T10:35:15.922Z,80.85
2023-01-19T10:37:44.464Z,68.10
2023-01-19T10:40:12.632Z,78.60
2023-01-19T10:42:42.590Z,70.43
2023-01-19T10:45:27.924Z,70.45
2023-01-19T10:48:01.112Z,79.05
2023-01-19T10:50:34.277Z,66.50
2023-01-19T10:53:05.714Z,80.85
2023-01-19T10:55:39.237Z,68.18
2023-01-19T10:58:31.246Z,73.95
2023-01-19T11:01:18.781Z,59.88
2023-01-19T11:03:47.529Z,72.90
2023-01-19T11:06:15.668Z,69.65
2023-01-19T11:08:45.743Z,54.88
2023-01-19T11:11:14.982Z,74.30
2023-01-19T11:13:44.354Z,61.78
2023-01-19T11:16:27.758Z,70.15
2023-01-19T11:18:57.674Z,69.82
2023-01-19T11:21:27.547Z,59.67
2023-01-19T11:24:04.818Z,59.22
2023-01-19T11:26:55.684Z,47.40
2023-01-19T11:29:26.078Z,80.10
2023-01-19T11:31:55.509Z,75.28
2023-01-19T11:34:35.857Z,65.03
2023-01-19T11:37:19.399Z,48.17
2023-01-19T11:39:50.503Z,52.80
2023-01-19T11:42:20.051Z,83.03
2023-01-19T11:45:00.381Z,61.17
2023-01-19T11:47:43.246Z,57.42
2023-01-19T11:50:26.993Z,64.60
2023-01-19T11:53:18.078Z,64.85
2023-01-19T11:56:11.471Z,59.40
2023-01-19T11:58:42.266Z,52.78
2023-01-19T12:01:18.080Z,67.53
2023-01-19T12:03:55.430Z,83.30
2023-01-19T12:06:38.464Z,59.65
2023-01-19T12:09:24.824Z,50.58
2023-01-19T12:12:15.671Z,60.45
2023-01-19T12:14:58.609Z,63.00
2023-01-19T12:17:46.118Z,70.22
2023-01-19T12:20:40.268Z,55.90
2023-01-19T12:23:41.885Z,66.05
2023-01-19T12:26:28.690Z,50.50
2023-01-19T12:29:04.448Z,56.97
2023-01-19T12:31:33.028Z,62.97
2023-01-19T12:34:28.721Z,53.00
2023-01-19T12:37:03.059Z,50.15
2023-01-19T12:39:33.571Z,56.05
2023-01-19T12:42:12.538Z,54.75
2023-01-19T12:44:42.202Z,56.17
2023-01-19T12:47:16.167Z,57.22
2023-01-19T12:49:49.543Z,59.58
2023-01-19T12:52:48.378Z,45.58
2023-01-19T12:55:16.667Z,50.28
2023-01-19T12:58:01.720Z,56.65
2023-01-19T13:00:34.335Z,55.22
2023-01-19T13:03:06.839Z,53.70
2023-01-19T13:05:41.166Z,53.10
2023-01-19T13:08:09.471Z,62.03
2023-01-19T13:11:02.416Z,72.10
2023-01-19T13:13:42.364Z,54.38
2023-01-19T13:16:19.954Z,65.18
2023-01-19T13:19:02.303Z,58.65
2023-01-19T13:21:44.409Z,56.60
2023-01-19T13:24:18.156Z,73.13
2023-01-19T13:26:53.528Z,81.90
2023-01-19T13:29:40.388Z,49.70
2023-01-19T13:32:18.426Z,60.83
2023-01-19T13:34:55.574Z,113.50
2023-01-19T13:37:27.752Z,62.65
2023-01-19T13:39:57.049Z,66.47
2023-01-19T13:42:29.614Z,74.85
2023-01-19T13:45:17.225Z,52.47
2023-01-19T13:47:49.381Z,45.92
2023-01-19T13:50:27.758Z,64.50
2023-01-19T13:52:56.487Z,66.70
2023-01-19T13:55:25.876Z,82.15
2023-01-19T13:57:54.767Z,68.13
2023-01-19T14:00:28.847Z,60.30
2023-01-19T14:03:10.535Z,62.97
2023-01-19T14:05:40.766Z,53.40
2023-01-19T14:08:13.863Z,54.33
2023-01-19T14:10:54.287Z,61.35
2023-01-19T14:13:31.123Z,63.42
2023-01-19T14:16:14.213Z,69.07
2023-01-19T14:18:42.728Z,54.80
2023-01-19T14:21:13.924Z,59.40
2023-01-19T14:23:49.041Z,74.10
2023-01-19T14:26:38.836Z,68.43
2023-01-19T14:29:27.158Z,58.72
2023-01-19T14:32:01.584Z,74.60
2023-01-19T14:34:45.307Z,65.07
2023-01-19T14:37:21.588Z,61.58
2023-01-19T14:40:19.252Z,57.72
2023-01-19T14:42:55.097Z,54.85
2023-01-19T14:45:32.504Z,77.80
2023-01-19T14:48:04.358Z,59.60
2023-01-19T14:50:42.765Z,48.58
2023-01-19T14:53:17.542Z,57.38
2023-01-19T14:55:55.479Z,46.35
2023-01-19T14:58:26.256Z,65.85
2023-01-19T15:00:54.751Z,68.40
2023-01-19T15:03:34.886Z,50.53
2023-01-19T15:06:07.017Z,72.47
2023-01-19T15:08:35.779Z,56.17
2023-01-19T15:11:35.524Z,54.43
2023-01-19T15:14:04.090Z,61.40
2023-01-19T15:16:35.221Z,45.10
2023-01-19T15:19:03.645Z,69.55
2023-01-19T15:21:31.798Z,58.85
2023-01-19T15:24:00.056Z,59.10
2023-01-19T15:26:28.608Z,60.92
2023-01-19T15:28:57.365Z,63.95
2023-01-19T15:31:27.036Z,47.58
2023-01-19T15:33:55.533Z,66.30
2023-01-19T15:36:24.641Z,53.78
2023-01-19T15:38:52.888Z,112.25
2023-01-19T15:41:29.531Z,65.45
2023-01-19T15:43:58.566Z,68.13
2023-01-19T15:46:27.391Z,56.83
2023-01-19T15:48:55.679Z,58.10
2023-01-19T15:51:26.201Z,65.70
2023-01-19T15:53:55.718Z,59.60
2023-01-19T15:56:25.364Z,65.15
2023-01-19T15:58:54.541Z,47.78
2023-01-19T16:01:26.539Z,55.15
2023-01-19T16:03:54.843Z,55.80
2023-01-19T16:06:23.429Z,51.75
2023-01-19T16:08:51.816Z,56.72
2023-01-19T16:11:20.151Z,62.55
2023-01-19T16:13:48.711Z,64.30
2023-01-19T16:16:19.975Z,72.40
2023-01-19T16:18:48.893Z,60.80
2023-01-19T16:21:17.640Z,65.45
2023-01-19T16:23:46.513Z,63.38
2023-01-19T16:26:28.326Z,57.03
2023-01-19T16:29:01.597Z,62.83
2023-01-19T16:31:30.448Z,57.03
2023-01-19T16:33:58.718Z,75.55
2023-01-19T16:36:29.973Z,56.33
2023-01-19T16:39:03.222Z,50.60
2023-01-19T16:41:31.452Z,65.93
2023-01-19T16:43:59.711Z,48.70
2023-01-19T16:46:30.542Z,55.50
2023-01-19T16:49:21.936Z,57.08
2023-01-19T16:51:50.380Z,71.93
2023-01-19T16:54:21.216Z,70.80
2023-01-19T16:56:50.391Z,65.80
2023-01-19T16:59:19.657Z,76.68
2023-01-19T17:01:48.194Z,56.53
2023-01-19T17:04:16.582Z,59.83
2023-01-19T17:06:45.266Z,74.38
2023-01-19T17:09:14.152Z,77.63
2023-01-19T17:11:43.088Z,87.55
2023-01-19T17:14:19.578Z,56.90
2023-01-19T17:16:48.715Z,81.00
2023-01-19T17:19:19.202Z,86.20
2023-01-19T17:21:49.094Z,65.28
2023-01-19T17:24:17.877Z,65.40
2023-01-19T17:26:46.364Z,74.75
2023-01-19T17:29:15.036Z,64.40
2023-01-19T17:31:43.907Z,69.57
2023-01-19T17:34:12.235Z,74.72
2023-01-19T17:36:40.506Z,76.07
2023-01-19T17:39:10.527Z,100.90
2023-01-19T17:41:39.009Z,83.60
2023-01-19T17:44:08.016Z,104.75
2023-01-19T17:46:38.605Z,84.75
2023-01-19T17:49:08.404Z,102.53
2023-01-19T17:51:37.158Z,92.97
2023-01-19T17:54:05.417Z,101.15
2023-01-19T17:56:34.286Z,83.28
2023-01-19T17:59:02.799Z,75.05
2023-01-19T18:01:33.191Z,89.10
2023-01-19T18:04:01.583Z,94.40
2023-01-19T18:06:29.793Z,86.05
2023-01-19T18:08:58.533Z,92.13
2023-01-19T18:11:27.772Z,108.18
2023-01-19T18:13:56.180Z,64.30
2023-01-19T18:16:26.865Z,54.25
2023-01-19T18:18:56.671Z,57.83
2023-01-19T18:21:26.958Z,83.40
2023-01-19T18:24:03.807Z,98.68
2023-01-19T18:26:33.842Z,128.38
2023-01-19T18:29:02.372Z,79.40
2023-01-19T18:31:30.782Z,91.70
2023-01-19T18:33:59.172Z,119.05
2023-01-19T18:36:27.844Z,80.38
2023-01-19T18:38:56.153Z,90.80
2023-01-19T18:41:24.445Z,96.30
2023-01-19T18:43:52.872Z,109.72
2023-01-19T18:46:21.232Z,105.72
2023-01-19T18:48:49.499Z,91.80
2023-01-19T18:51:18.497Z,100.80
2023-01-19T18:53:47.002Z,89.85
2023-01-19T18:56:16.565Z,71.32
2023-01-19T18:58:45.688Z,94.90
2023-01-19T19:01:40.181Z,82.85
2023-01-19T19:04:08.767Z,93.90
2023-01-19T19:06:37.335Z,96.28
2023-01-19T19:09:06.159Z,114.82
2023-01-19T19:11:35.880Z,129.15
2023-01-19T19:14:04.277Z,106.65
2023-01-19T19:16:35.399Z,163.32
2023-01-19T19:21:32.627Z,132.68
2023-01-19T19:24:00.757Z,112.97
2023-01-19T19:26:29.637Z,122.72
2023-01-19T19:28:58.108Z,98.45
2023-01-19T19:31:26.569Z,114.10
2023-01-19T19:33:56.876Z,98.13
2023-01-19T19:36:27.097Z,97.95
2023-01-19T19:38:55.679Z,99.15
2023-01-19T19:41:25.856Z,105.25
2023-01-19T19:43:55.050Z,86.38
2023-01-19T19:46:24.428Z,81.22
2023-01-19T19:48:54.079Z,80.25
2023-01-19T19:51:28.382Z,95.38
2023-01-19T19:53:58.942Z,78.10
2023-01-19T19:56:29.595Z,93.45
2023-01-19T19:58:59.718Z,98.78
2023-01-19T20:01:32.875Z,96.93
2023-01-19T20:04:07.922Z,89.20
2023-01-19T20:06:37.118Z,117.43
2023-01-19T20:09:05.905Z,136.45
2023-01-19T20:11:34.648Z,159.32
2023-01-19T20:14:08.278Z,141.02
2023-01-19T20:16:37.342Z,117.50
2023-01-19T20:19:06.099Z,131.93
2023-01-19T20:21:36.411Z,111.00
2023-01-19T20:24:08.616Z,97.30
2023-01-19T20:26:41.593Z,106.15
2023-01-19T20:29:10.891Z,126.00
2023-01-19T20:31:43.245Z,119.43
2023-01-19T20:34:14.870Z,106.38
2023-01-19T20:36:43.314Z,110.40
2023-01-19T20:39:11.404Z,109.03
2023-01-19T20:41:40.694Z,134.38
2023-01-19T20:44:08.842Z,107.90
2023-01-19T20:46:37.452Z,104.30
2023-01-19T20:49:05.830Z,98.28
2023-01-19T20:51:34.442Z,114.43
2023-01-19T20:54:02.733Z,109.68
2023-01-19T20:56:31.056Z,106.68
2023-01-19T20:59:00.164Z,126.95
2023-01-19T21:01:29.003Z,115.20
2023-01-19T21:03:57.411Z,93.65
2023-01-19T21:06:25.745Z,89.97
2023-01-19T21:08:54.632Z,85.95
2023-01-19T21:11:22.986Z,78.25
2023-01-19T21:13:52.320Z,94.05
2023-01-19T21:16:20.536Z,111.95
2023-01-19T21:18:48.872Z,122.90
2023-01-19T21:21:29.357Z,89.70
2023-01-19T21:24:00.521Z,82.20
2023-01-19T21:26:29.924Z,90.32
2023-01-19T21:29:02.715Z,131.85
2023-01-19T21:31:31.432Z,114.82
2023-01-19T21:34:00.130Z,113.72
2023-01-19T21:36:28.504Z,137.00
2023-01-19T21:38:56.997Z,129.75
2023-01-19T21:41:25.436Z,122.50
2023-01-19T21:43:53.917Z,90.88
2023-01-19T21:46:24.727Z,100.63
2023-01-19T21:48:53.055Z,102.65
2023-01-19T21:51:22.930Z,103.25
2023-01-19T21:53:52.100Z,102.43
2023-01-19T21:56:21.496Z,103.53
2023-01-19T21:58:49.625Z,110.55
2023-01-19T22:01:18.102Z,197.77
2023-01-19T22:03:46.474Z,294.52
2023-01-19T22:06:15.604Z,383.98
2023-01-19T22:08:44.043Z,445.88
2023-01-19T22:11:14.472Z,329.30
2023-01-19T22:13:42.941Z,404.38
2023-01-19T22:16:14.587Z,411.52
2023-01-19T22:18:45.402Z,330.30
2023-01-19T22:21:14.897Z,240.32
2023-01-19T22:23:43.616Z,270.50
2023-01-19T22:26:12.653Z,157.15
2023-01-19T22:28:41.250Z,95.82
2023-01-19T22:31:14.111Z,69.53
2023-01-19T22:33:43.613Z,79.47
2023-01-19T22:36:19.917Z,89.45
2023-01-19T22:38:53.585Z,106.53
2023-01-19T22:41:25.839Z,133.35
2023-01-19T22:43:56.579Z,98.28
2023-01-19T22:46:28.366Z,97.80
2023-01-19T22:48:57.147Z,84.25
2023-01-19T22:51:27.153Z,116.93
2023-01-19T22:53:55.666Z,95.55
2023-01-19T22:56:26.489Z,95.68
2023-01-19T22:58:55.448Z,97.85
2023-01-19T23:01:26.119Z,113.70
2023-01-19T23:03:55.844Z,100.22
2023-01-19T23:06:29.533Z,100.43
2023-01-19T23:09:00.707Z,90.70
2023-01-19T23:11:41.170Z,55.47
2023-01-19T23:14:12.999Z,93.90
2023-01-19T23:16:41.878Z,80.88
2023-01-19T23:19:12.229Z,75.03
2023-01-19T23:21:41.780Z,86.05
2023-01-19T23:24:10.222Z,87.40
2023-01-19T23:26:38.559Z,89.82
2023-01-19T23:29:15.587Z,94.93
2023-01-19T23:31:46.909Z,74.30
2023-01-19T23:34:15.499Z,80.00
2023-01-19T23:36:44.270Z,73.03
2023-01-19T23:39:18.514Z,74.85
2023-01-19T23:41:47.435Z,69.75
2023-01-19T23:44:16.134Z,79.03
2023-01-19T23:46:44.352Z,67.57
2023-01-19T23:49:13.497Z,69.43
2023-01-19T23:51:42.286Z,71.18
2023-01-19T23:54:10.671Z,68.20
2023-01-19T23:56:40.051Z,72.28
2023-01-19T23:59:11.220Z,64.35
